Latest Coastal Weather Observations for Rowley Shoals

IDW60701

Issued at 9:15 pm WST Sunday 20 April 2014 (issued every 10 minutes, with the page automatically refreshed every 10 minutes)

About coastal observations | Map of coastal stations | Coastal observations for WA | Marine services | Other Formats
Station Details ID: 200713 Name: ROWLEY SHOALS Lat: -17.52 Lon: 118.95 Height: 0.0 m
Data from the previous 72 hours. | See also: Recent months for locations in Western Australia
Date/Time
WST
Temp

°C
Wind Pressure Rain
since 9am
mm
Weather Cloud Vis
km
Sea
Height
m
Swell
Dir
 
Speed
knots
Gust
knots
hPa Trend Height
m
Period
s
Dir
20/09:00pm - SSE 5 7 1010.8 - - - - - - - - -
20/08:30pm - SSE 5 6 1010.8 - - - - - - - - -
20/08:00pm - SSE 5 7 1010.5 - - - - - - - - -
20/07:30pm - SE 7 7 1010.3 - - - - - - - - -
20/07:00pm - SE 6 7 1010.0 - - - - - - - - -
20/06:30pm - SE 6 7 1009.9 - - - - - - - - -
20/06:00pm - SE 6 7 1009.7 - - - - - - - - -
20/05:30pm - SE 7 8 1009.5 - - - - - - - - -
20/05:00pm - SE 8 9 1009.3 - - - - - - - - -
20/04:30pm - ESE 10 11 1009.2 - - - - - - - - -
20/04:00pm - ESE 9 12 1009.0 - - - - - - - - -
20/03:30pm - ESE 10 11 1009.0 - - - - - - - - -
20/03:00pm - SE 10 12 1008.9 - - - - - - - - -
20/02:30pm - SE 10 12 1009.2 - - - - - - - - -
20/02:00pm - SE 10 11 1009.1 - - - - - - - - -
20/01:30pm - SE 10 11 1009.5 - - - - - - - - -
20/01:00pm - SE 11 14 1009.6 - - - - - - - - -
20/12:30pm - SSE 11 13 1010.2 - - - - - - - - -
20/12:00pm - SSE 11 13 1010.4 - - - - - - - - -
20/11:30am - SSE 12 14 1010.8 - - - - - - - - -
20/11:00am - SSE 9 12 1010.9 - - - - - - - - -
20/10:30am - SSE 9 11 1011.3 - - - - - - - - -
20/10:00am - S 8 9 1011.3 - - - - - - - - -
20/09:30am - S 5 6 1011.5 - - - - - - - - -
20/09:00am - S 4 8 1011.2 - - - - - - - - -
20/08:30am - SSE 4 6 1011.2 - - - - - - - - -
20/08:00am - SE 4 5 1011.0 - - - - - - - - -
20/07:30am - CALM 0 0 1011.0 - - - - - - - - -
20/07:00am - E 0 4 1010.7 - - - - - - - - -
20/06:30am - NNE 2 3 1010.6 - - - - - - - - -
20/06:00am - NNW 3 4 1010.3 - - - - - - - - -
20/05:30am - NNW 4 4 1010.1 - - - - - - - - -
20/05:00am - NNE 4 5 1010.0 - - - - - - - - -
20/04:30am - NE 5 6 1010.1 - - - - - - - - -
20/04:00am - ENE 4 6 1009.9 - - - - - - - - -
20/03:30am - NE 6 7 1010.0 - - - - - - - - -
20/03:00am - ENE 6 8 1009.8 - - - - - - - - -
20/02:30am - NE 6 8 1010.0 - - - - - - - - -
20/02:00am - NE 7 8 1009.9 - - - - - - - - -
20/01:30am - ENE 6 7 1010.2 - - - - - - - - -
20/01:00am - ENE 6 8 1010.2 - - - - - - - - -
20/12:30am - E 6 6 1010.6 - - - - - - - - -
20/12:00am - ESE 7 8 1010.8 - - - - - - - - -
 
Date/Time
WST
Temp

°C
Wind Pressure Rain
since 9am
mm
Weather Cloud Vis
km
Sea
Height
m
Swell
Dir
 
Speed
knots
Gust
knots
hPa Trend Height
m
Period
s
Dir
19/11:30pm - ESE 7 8 1011.0 - - - - - - - - -
19/11:00pm - SE 7 9 1010.9 - - - - - - - - -
19/10:30pm - SE 8 10 1011.1 - - - - - - - - -
19/10:00pm - SE 9 10 1011.1 - - - - - - - - -
19/09:30pm - SE 9 10 1011.2 - - - - - - - - -
19/09:00pm - SE 9 11 1011.2 - - - - - - - - -
19/08:30pm - SE 9 9 1011.4 - - - - - - - - -
19/08:00pm - ESE 9 10 1011.2 - - - - - - - - -
19/07:30pm - SE 9 10 1010.8 - - - - - - - - -
19/07:00pm - SE 10 11 1010.4 - - - - - - - - -
19/06:30pm - SE 10 11 1010.0 - - - - - - - - -
19/06:00pm - SE 11 12 1009.8 - - - - - - - - -
19/05:30pm - SE 11 14 1009.7 - - - - - - - - -
19/05:00pm - SE 13 14 1009.5 - - - - - - - - -
19/04:30pm - SSE 13 15 1009.7 - - - - - - - - -
19/04:00pm - SSE 14 16 1009.4 - - - - - - - - -
19/03:30pm - SSE 14 16 1009.1 - - - - - - - - -
19/03:00pm - SSE 15 18 1009.0 - - - - - - - - -
19/02:30pm - SSE 15 18 1009.1 - - - - - - - - -
19/02:00pm - SSE 15 18 1009.2 - - - - - - - - -
19/01:30pm - SSE 17 19 1009.6 - - - - - - - - -
19/01:00pm - SSE 16 19 1009.8 - - - - - - - - -
19/12:30pm - SSE 18 20 1010.3 - - - - - - - - -
19/12:00pm - SSE 19 22 1010.4 - - - - - - - - -
19/11:30am - SSE 18 21 1011.0 - - - - - - - - -
19/11:00am - SSE 18 21 1011.1 - - - - - - - - -
19/10:30am - SSE 19 22 1011.8 - - - - - - - - -
19/10:00am - SSE 17 21 1011.9 - - - - - - - - -
19/09:30am - SSE 18 22 1012.3 - - - - - - - - -
19/09:00am - SSE 18 20 1012.4 - - - - - - - - -
19/08:30am - SSE 17 20 1012.4 - - - - - - - - -
19/08:00am - SSE 14 19 1012.2 - - - - - - - - -
19/07:30am - SSE 12 15 1012.1 - - - - - - - - -
19/07:00am - SSE 9 12 1011.9 - - - - - - - - -
19/06:30am - SSE 10 11 1011.9 - - - - - - - - -
19/06:00am - S 8 8 1011.6 - - - - - - - - -
19/05:30am - S 7 9 1011.5 - - - - - - - - -
19/05:00am - S 7 9 1011.3 - - - - - - - - -
19/04:30am - S 7 8 1011.4 - - - - - - - - -
19/04:00am - S 6 7 1011.3 - - - - - - - - -
19/03:30am - S 4 5 1011.4 - - - - - - - - -
19/03:00am - S 4 4 1011.4 - - - - - - - - -
19/02:30am - CALM 0 0 1011.7 - - - - - - - - -
19/02:00am - CALM 0 0 1011.7 - - - - - - - - -
19/01:30am - ENE 5 7 1012.1 - - - - - - - - -
19/01:00am - ENE 8 10 1012.2 - - - - - - - - -
19/12:30am - ENE 9 10 1012.6 - - - - - - - - -
19/12:00am - ENE 9 11 1012.6 - - - - - - - - -
 
Date/Time
WST
Temp

°C
Wind Pressure Rain
since 9am
mm
Weather Cloud Vis
km
Sea
Height
m
Swell
Dir
 
Speed
knots
Gust
knots
hPa Trend Height
m
Period
s
Dir
18/11:30pm - ENE 9 10 1012.9 - - - - - - - - -
18/11:00pm - ENE 9 10 1013.0 - - - - - - - - -
18/10:30pm - ENE 8 9 1013.2 - - - - - - - - -
18/10:00pm - E 8 9 1013.2 - - - - - - - - -
18/09:30pm - E 10 11 1013.5 - - - - - - - - -
18/09:00pm - E 11 13 1013.3 - - - - - - - - -
18/08:30pm - ESE 11 13 1013.2 - - - - - - - - -
18/08:00pm - ESE 12 13 1013.0 - - - - - - - - -
18/07:30pm - SE 12 14 1012.5 - - - - - - - - -
18/07:00pm - ESE 13 14 1012.2 - - - - - - - - -
18/06:30pm - ESE 13 15 1011.8 - - - - - - - - -
18/06:00pm - SE 12 14 1011.5 - - - - - - - - -
18/05:30pm - ESE 13 15 1011.2 - - - - - - - - -
18/05:00pm - ESE 14 15 1011.0 - - - - - - - - -
18/04:30pm - SE 12 14 1010.7 - - - - - - - - -
18/04:00pm - SE 13 15 1010.3 - - - - - - - - -
18/03:30pm - SE 13 16 1010.4 - - - - - - - - -
18/03:00pm - SE 14 15 1010.3 - - - - - - - - -
18/02:30pm - SSE 14 16 1010.6 - - - - - - - - -
18/02:00pm - SSE 14 15 1010.6 - - - - - - - - -
18/01:30pm - SSE 13 15 1010.8 - - - - - - - - -
18/01:00pm - SSE 13 15 1010.9 - - - - - - - - -
18/12:30pm - SSE 14 15 1011.6 - - - - - - - - -
18/12:00pm - SSE 13 15 1011.6 - - - - - - - - -
18/11:30am - SSE 13 15 1012.2 - - - - - - - - -
18/11:00am - SSE 14 17 1012.2 - - - - - - - - -
18/10:30am - SSE 14 16 1012.6 - - - - - - - - -
18/10:00am - SSE 15 17 1012.6 - - - - - - - - -
18/09:30am - SSE 14 15 1012.9 - - - - - - - - -
18/09:00am - SSE 14 17 1012.7 - - - - - - - - -
18/08:30am - SSE 14 16 1012.7 - - - - - - - - -
18/08:00am - SSE 14 15 1012.7 - - - - - - - - -
18/07:30am - SE 13 14 1012.7 - - - - - - - - -
18/07:00am - SE 14 15 1012.6 - - - - - - - - -
18/06:30am - SSE 13 16 1012.4 - - - - - - - - -
18/06:00am - SE 12 13 1012.2 - - - - - - - - -
18/05:30am - SE 11 13 1012.1 - - - - - - - - -
18/05:00am - SE 11 11 1012.0 - - - - - - - - -
18/04:30am - ESE 7 8 1011.9 - - - - - - - - -
18/04:00am - ESE 7 8 1011.7 - - - - - - - - -
18/03:30am - E 7 8 1012.1 - - - - - - - - -
18/03:00am - E 8 10 1012.0 - - - - - - - - -
18/02:30am - E 7 8 1012.1 - - - - - - - - -
18/02:00am - E 8 9 1011.9 - - - - - - - - -
18/01:30am - E 7 8 1012.1 - - - - - - - - -
18/01:00am - E 6 8 1012.0 - - - - - - - - -
18/12:30am - E 6 7 1012.4 - - - - - - - - -
18/12:00am - ENE 7 10 1012.4 - - - - - - - - -
 
Date/Time
WST
Temp

°C
Wind Pressure Rain
since 9am
mm
Weather Cloud Vis
km
Sea
Height
m
Swell
Dir
 
Speed
knots
Gust
knots
hPa Trend Height
m
Period
s
Dir
17/11:30pm - ENE 10 11 1012.8 - - - - - - - - -
17/11:00pm - ENE 9 11 1012.7 - - - - - - - - -
17/10:30pm - ENE 8 10 1012.9 - - - - - - - - -
17/10:00pm - ENE 9 11 1012.9 - - - - - - - - -
17/09:30pm - E 12 14 1013.1 - - - - - - - - -

Other Formats:

Comma delimited format used in spreadsheet applications
http://www.bom.gov.au/fwo/IDW60701/IDW60701.94207.axf

JavaScript Object Notation format (JSON) in row-major order
http://www.bom.gov.au/fwo/IDW60701/IDW60701.94207.json